<?xml version="1.0" encoding="UTF-8"?><gpx creator="Wikiloc - https://www.wikiloc.com" version="1.1" xmlns="http://www.topografix.com/GPX/1/1" xmlns:xsi="http://www.w3.org/2001/XMLSchema-instance" xsi:schemaLocation="http://www.topografix.com/GPX/1/1 http://www.topografix.com/GPX/1/1/gpx.xsd"><wpt lat="39.238084" lon="-7.241754"><ele>0.0</ele><time>2011-05-31T23:22:15Z</time><name>FRONTERA</name><cmt></cmt><desc></desc></wpt><wpt lat="39.238582" lon="-7.243879"><ele>0.0</ele><time>2011-05-31T23:22:32Z</time><name>ERMITA</name><cmt></cmt><desc></desc></wpt><wpt lat="39.237732" lon="-7.237046"><ele>0.0</ele><time>2011-05-31T23:22:52Z</time><name>ARROYO</name><cmt></cmt><desc></desc></wpt><wpt lat="39.241906" lon="-7.231061"><ele>0.0</ele><time>2011-06-14T18:58:55Z</time><name>PANEL INICIO</name><cmt></cmt><desc></desc></wpt><wpt lat="39.242182" lon="-7.230803"><ele>0.0</ele><time>2011-06-14T18:59:06Z</time><name>BACOCO</name><cmt></cmt><desc></desc></wpt><trk><name>SL-BA 242 'Ermita Virgen de La Lapa' (La Codosera)</name><cmt></cmt><desc></desc><trkseg><trkpt lat="39.241890" lon="-7.231080"><ele>384.2</ele><time>2011-05-27T16:40:15Z</time></trkpt><trkpt lat="39.241810" lon="-7.231120"><ele>383.2</ele><time>2011-05-27T16:40:27Z</time></trkpt><trkpt lat="39.241790" lon="-7.231160"><ele>383.2</ele><time>2011-05-27T16:41:29Z</time></trkpt><trkpt lat="39.241580" lon="-7.231350"><ele>381.8</ele><time>2011-05-27T16:42:44Z</time></trkpt><trkpt lat="39.241180" lon="-7.231780"><ele>381.3</ele><time>2011-05-27T16:42:59Z</time></trkpt><trkpt lat="39.240920" lon="-7.232280"><ele>378.9</ele><time>2011-05-27T16:43:12Z</time></trkpt><trkpt lat="39.240600" lon="-7.232360"><ele>382.2</ele><time>2011-05-27T16:43:24Z</time></trkpt><trkpt lat="39.240080" lon="-7.232540"><ele>385.6</ele><time>2011-05-27T16:43:39Z</time></trkpt><trkpt lat="39.240050" lon="-7.232540"><ele>387.6</ele><time>2011-05-27T16:43:51Z</time></trkpt><trkpt lat="39.240060" lon="-7.232540"><ele>388.5</ele><time>2011-05-27T16:44:22Z</time></trkpt><trkpt lat="39.240010" lon="-7.232620"><ele>388.5</ele><time>2011-05-27T16:44:25Z</time></trkpt><trkpt lat="39.239870" lon="-7.233060"><ele>390.4</ele><time>2011-05-27T16:44:37Z</time></trkpt><trkpt lat="39.239840" lon="-7.233250"><ele>390.0</ele><time>2011-05-27T16:44:45Z</time></trkpt><trkpt lat="39.239670" lon="-7.233400"><ele>390.4</ele><time>2011-05-27T16:45:07Z</time></trkpt><trkpt lat="39.239640" lon="-7.233410"><ele>390.9</ele><time>2011-05-27T16:45:08Z</time></trkpt><trkpt lat="39.239400" lon="-7.233250"><ele>390.0</ele><time>2011-05-27T16:45:19Z</time></trkpt><trkpt lat="39.239400" lon="-7.233250"><ele>390.0</ele><time>2011-05-27T16:45:39Z</time></trkpt><trkpt lat="39.239060" lon="-7.233050"><ele>390.4</ele><time>2011-05-27T16:45:50Z</time></trkpt><trkpt lat="39.239080" lon="-7.233060"><ele>390.9</ele><time>2011-05-27T16:46:13Z</time></trkpt><trkpt lat="39.238910" lon="-7.233020"><ele>391.4</ele><time>2011-05-27T16:46:40Z</time></trkpt><trkpt lat="39.238870" lon="-7.233050"><ele>391.9</ele><time>2011-05-27T16:46:52Z</time></trkpt><trkpt lat="39.238820" lon="-7.233180"><ele>392.4</ele><time>2011-05-27T16:47:07Z</time></trkpt><trkpt lat="39.238610" lon="-7.233690"><ele>389.0</ele><time>2011-05-27T16:47:22Z</time></trkpt><trkpt lat="39.238350" lon="-7.234150"><ele>387.6</ele><time>2011-05-27T16:47:33Z</time></trkpt><trkpt lat="39.238270" lon="-7.234370"><ele>387.1</ele><time>2011-05-27T16:47:38Z</time></trkpt><trkpt lat="39.238250" lon="-7.235150"><ele>383.7</ele><time>2011-05-27T16:47:50Z</time></trkpt><trkpt lat="39.238270" lon="-7.235310"><ele>382.7</ele><time>2011-05-27T16:47:57Z</time></trkpt><trkpt lat="39.238270" lon="-7.235300"><ele>381.8</ele><time>2011-05-27T16:47:58Z</time></trkpt><trkpt lat="39.238250" lon="-7.235520"><ele>379.4</ele><time>2011-05-27T16:48:09Z</time></trkpt><trkpt lat="39.238160" lon="-7.235580"><ele>379.4</ele><time>2011-05-27T16:48:40Z</time></trkpt><trkpt lat="39.238100" lon="-7.235850"><ele>380.3</ele><time>2011-05-27T16:48:52Z</time></trkpt><trkpt lat="39.237960" lon="-7.236450"><ele>382.2</ele><time>2011-05-27T16:49:06Z</time></trkpt><trkpt lat="39.237780" lon="-7.237000"><ele>384.7</ele><time>2011-05-27T16:49:22Z</time></trkpt><trkpt lat="39.237705" lon="-7.237161"><ele>386.6</ele><time>2011-05-27T16:49:38Z</time></trkpt><trkpt lat="39.237800" lon="-7.237460"><ele>395.7</ele><time>2011-05-27T16:53:29Z</time></trkpt><trkpt lat="39.237860" lon="-7.237610"><ele>394.3</ele><time>2011-05-27T16:53:41Z</time></trkpt><trkpt lat="39.237860" lon="-7.237630"><ele>393.8</ele><time>2011-05-27T16:53:41Z</time></trkpt><trkpt lat="39.237870" lon="-7.237830"><ele>392.4</ele><time>2011-05-27T16:53:53Z</time></trkpt><trkpt lat="39.237860" lon="-7.238040"><ele>391.9</ele><time>2011-05-27T16:54:08Z</time></trkpt><trkpt lat="39.237900" lon="-7.238200"><ele>389.0</ele><time>2011-05-27T16:54:22Z</time></trkpt><trkpt lat="39.237940" lon="-7.238540"><ele>388.5</ele><time>2011-05-27T16:54:45Z</time></trkpt><trkpt lat="39.237970" lon="-7.238950"><ele>388.0</ele><time>2011-05-27T16:55:21Z</time></trkpt><trkpt lat="39.237960" lon="-7.239150"><ele>388.5</ele><time>2011-05-27T16:55:37Z</time></trkpt><trkpt lat="39.237850" lon="-7.239230"><ele>393.3</ele><time>2011-05-27T16:55:52Z</time></trkpt><trkpt lat="39.237810" lon="-7.239290"><ele>402.9</ele><time>2011-05-27T16:56:07Z</time></trkpt><trkpt lat="39.237750" lon="-7.239610"><ele>420.2</ele><time>2011-05-27T16:56:51Z</time></trkpt><trkpt lat="39.237640" lon="-7.239970"><ele>425.5</ele><time>2011-05-27T16:57:28Z</time></trkpt><trkpt lat="39.237620" lon="-7.240100"><ele>427.5</ele><time>2011-05-27T16:57:40Z</time></trkpt><trkpt lat="39.237650" lon="-7.240210"><ele>431.8</ele><time>2011-05-27T16:57:50Z</time></trkpt><trkpt lat="39.237700" lon="-7.240410"><ele>441.4</ele><time>2011-05-27T16:58:07Z</time></trkpt><trkpt lat="39.237720" lon="-7.240580"><ele>444.7</ele><time>2011-05-27T16:58:19Z</time></trkpt><trkpt lat="39.237720" lon="-7.240760"><ele>445.2</ele><time>2011-05-27T16:58:34Z</time></trkpt><trkpt lat="39.237740" lon="-7.240890"><ele>443.3</ele><time>2011-05-27T16:58:46Z</time></trkpt><trkpt lat="39.237740" lon="-7.240890"><ele>443.3</ele><time>2011-05-27T16:58:48Z</time></trkpt><trkpt lat="39.237890" lon="-7.241070"><ele>448.1</ele><time>2011-05-27T16:59:05Z</time></trkpt><trkpt lat="39.237930" lon="-7.241210"><ele>452.9</ele><time>2011-05-27T16:59:20Z</time></trkpt><trkpt lat="39.237940" lon="-7.241240"><ele>453.4</ele><time>2011-05-27T16:59:21Z</time></trkpt><trkpt lat="39.238080" lon="-7.241370"><ele>456.3</ele><time>2011-05-27T16:59:36Z</time></trkpt><trkpt lat="39.238120" lon="-7.241500"><ele>458.2</ele><time>2011-05-27T16:59:47Z</time></trkpt><trkpt lat="39.238150" lon="-7.241730"><ele>462.0</ele><time>2011-05-27T17:00:03Z</time></trkpt><trkpt lat="39.238180" lon="-7.241870"><ele>458.7</ele><time>2011-05-27T17:00:14Z</time></trkpt><trkpt lat="39.238190" lon="-7.242000"><ele>456.3</ele><time>2011-05-27T17:01:39Z</time></trkpt><trkpt lat="39.238270" lon="-7.242300"><ele>459.2</ele><time>2011-05-27T17:02:05Z</time></trkpt><trkpt lat="39.238300" lon="-7.242480"><ele>461.6</ele><time>2011-05-27T17:02:21Z</time></trkpt><trkpt lat="39.238410" lon="-7.242740"><ele>466.9</ele><time>2011-05-27T17:02:48Z</time></trkpt><trkpt lat="39.238450" lon="-7.242960"><ele>467.3</ele><time>2011-05-27T17:03:04Z</time></trkpt><trkpt lat="39.238510" lon="-7.243240"><ele>472.1</ele><time>2011-05-27T17:03:28Z</time></trkpt><trkpt lat="39.238490" lon="-7.243340"><ele>473.1</ele><time>2011-05-27T17:03:32Z</time></trkpt><trkpt lat="39.238510" lon="-7.243540"><ele>477.0</ele><time>2011-05-27T17:03:47Z</time></trkpt><trkpt lat="39.238500" lon="-7.243600"><ele>477.9</ele><time>2011-05-27T17:03:51Z</time></trkpt><trkpt lat="39.238510" lon="-7.243700"><ele>481.3</ele><time>2011-05-27T17:04:02Z</time></trkpt><trkpt lat="39.238530" lon="-7.243680"><ele>482.7</ele><time>2011-05-27T17:04:16Z</time></trkpt><trkpt lat="39.238560" lon="-7.243830"><ele>484.6</ele><time>2011-05-27T17:04:48Z</time></trkpt><trkpt lat="39.238510" lon="-7.243880"><ele>487.0</ele><time>2011-05-27T17:05:00Z</time></trkpt><trkpt lat="39.238480" lon="-7.243840"><ele>489.4</ele><time>2011-05-27T17:05:12Z</time></trkpt><trkpt lat="39.238490" lon="-7.243830"><ele>489.9</ele><time>2011-05-27T17:05:15Z</time></trkpt><trkpt lat="39.238673" lon="-7.243965"><ele>489.9</ele><time>2011-05-27T17:05:15Z</time></trkpt><trkpt lat="39.238366" lon="-7.243744"><ele>489.4</ele><time>2011-05-27T17:05:12Z</time></trkpt><trkpt lat="39.238510" lon="-7.243880"><ele>487.0</ele><time>2011-05-27T17:05:00Z</time></trkpt><trkpt lat="39.238560" lon="-7.243830"><ele>484.6</ele><time>2011-05-27T17:04:48Z</time></trkpt><trkpt lat="39.238530" lon="-7.243680"><ele>482.7</ele><time>2011-05-27T17:04:16Z</time></trkpt><trkpt lat="39.238510" lon="-7.243700"><ele>481.3</ele><time>2011-05-27T17:04:02Z</time></trkpt><trkpt lat="39.238500" lon="-7.243600"><ele>477.9</ele><time>2011-05-27T17:03:51Z</time></trkpt><trkpt lat="39.238510" lon="-7.243540"><ele>477.0</ele><time>2011-05-27T17:03:47Z</time></trkpt><trkpt lat="39.238490" lon="-7.243340"><ele>473.1</ele><time>2011-05-27T17:03:32Z</time></trkpt><trkpt lat="39.238510" lon="-7.243240"><ele>472.1</ele><time>2011-05-27T17:03:28Z</time></trkpt><trkpt lat="39.238450" lon="-7.242960"><ele>467.3</ele><time>2011-05-27T17:03:04Z</time></trkpt><trkpt lat="39.238410" lon="-7.242740"><ele>466.9</ele><time>2011-05-27T17:02:48Z</time></trkpt><trkpt lat="39.238300" lon="-7.242480"><ele>461.6</ele><time>2011-05-27T17:02:21Z</time></trkpt><trkpt lat="39.238270" lon="-7.242300"><ele>459.2</ele><time>2011-05-27T17:02:05Z</time></trkpt><trkpt lat="39.238190" lon="-7.242000"><ele>456.3</ele><time>2011-05-27T17:01:39Z</time></trkpt><trkpt lat="39.238180" lon="-7.241870"><ele>458.7</ele><time>2011-05-27T17:00:14Z</time></trkpt><trkpt lat="39.238150" lon="-7.241730"><ele>462.0</ele><time>2011-05-27T17:00:03Z</time></trkpt><trkpt lat="39.238120" lon="-7.241500"><ele>458.2</ele><time>2011-05-27T16:59:47Z</time></trkpt><trkpt lat="39.238080" lon="-7.241370"><ele>456.3</ele><time>2011-05-27T16:59:36Z</time></trkpt><trkpt lat="39.237940" lon="-7.241240"><ele>453.4</ele><time>2011-05-27T16:59:21Z</time></trkpt><trkpt lat="39.237930" lon="-7.241210"><ele>452.9</ele><time>2011-05-27T16:59:20Z</time></trkpt><trkpt lat="39.237890" lon="-7.241070"><ele>448.1</ele><time>2011-05-27T16:59:05Z</time></trkpt><trkpt lat="39.237740" lon="-7.240890"><ele>443.3</ele><time>2011-05-27T16:58:48Z</time></trkpt><trkpt lat="39.237740" lon="-7.240890"><ele>443.3</ele><time>2011-05-27T16:58:46Z</time></trkpt><trkpt lat="39.237720" lon="-7.240760"><ele>445.2</ele><time>2011-05-27T16:58:34Z</time></trkpt><trkpt lat="39.237720" lon="-7.240580"><ele>444.7</ele><time>2011-05-27T16:58:19Z</time></trkpt><trkpt lat="39.237700" lon="-7.240410"><ele>441.4</ele><time>2011-05-27T16:58:07Z</time></trkpt><trkpt lat="39.237650" lon="-7.240210"><ele>431.8</ele><time>2011-05-27T16:57:50Z</time></trkpt><trkpt lat="39.237620" lon="-7.240100"><ele>427.5</ele><time>2011-05-27T16:57:40Z</time></trkpt><trkpt lat="39.237640" lon="-7.239970"><ele>425.5</ele><time>2011-05-27T16:57:28Z</time></trkpt><trkpt lat="39.237750" lon="-7.239610"><ele>420.2</ele><time>2011-05-27T16:56:51Z</time></trkpt><trkpt lat="39.237810" lon="-7.239290"><ele>402.9</ele><time>2011-05-27T16:56:07Z</time></trkpt><trkpt lat="39.237850" lon="-7.239230"><ele>393.3</ele><time>2011-05-27T16:55:52Z</time></trkpt><trkpt lat="39.237960" lon="-7.239150"><ele>388.5</ele><time>2011-05-27T16:55:37Z</time></trkpt><trkpt lat="39.237970" lon="-7.238950"><ele>388.0</ele><time>2011-05-27T16:55:21Z</time></trkpt><trkpt lat="39.237940" lon="-7.238540"><ele>388.5</ele><time>2011-05-27T16:54:45Z</time></trkpt><trkpt lat="39.237900" lon="-7.238200"><ele>389.0</ele><time>2011-05-27T16:54:22Z</time></trkpt><trkpt lat="39.237860" lon="-7.238040"><ele>391.9</ele><time>2011-05-27T16:54:08Z</time></trkpt><trkpt lat="39.237870" lon="-7.237830"><ele>392.4</ele><time>2011-05-27T16:53:53Z</time></trkpt><trkpt lat="39.237860" lon="-7.237630"><ele>393.8</ele><time>2011-05-27T16:53:41Z</time></trkpt><trkpt lat="39.237860" lon="-7.237610"><ele>394.3</ele><time>2011-05-27T16:53:41Z</time></trkpt><trkpt lat="39.237800" lon="-7.237460"><ele>395.7</ele><time>2011-05-27T16:53:29Z</time></trkpt><trkpt lat="39.237705" lon="-7.237161"><ele>386.6</ele><time>2011-05-27T16:49:38Z</time></trkpt><trkpt lat="39.237780" lon="-7.237000"><ele>384.7</ele><time>2011-05-27T16:49:22Z</time></trkpt><trkpt lat="39.237960" lon="-7.236450"><ele>382.2</ele><time>2011-05-27T16:49:06Z</time></trkpt><trkpt lat="39.238100" lon="-7.235850"><ele>380.3</ele><time>2011-05-27T16:48:52Z</time></trkpt><trkpt lat="39.238160" lon="-7.235580"><ele>379.4</ele><time>2011-05-27T16:48:40Z</time></trkpt><trkpt lat="39.238250" lon="-7.235520"><ele>379.4</ele><time>2011-05-27T16:48:09Z</time></trkpt><trkpt lat="39.238270" lon="-7.235300"><ele>381.8</ele><time>2011-05-27T16:47:58Z</time></trkpt><trkpt lat="39.238270" lon="-7.235310"><ele>382.7</ele><time>2011-05-27T16:47:57Z</time></trkpt><trkpt lat="39.238250" lon="-7.235150"><ele>383.7</ele><time>2011-05-27T16:47:50Z</time></trkpt><trkpt lat="39.238270" lon="-7.234370"><ele>387.1</ele><time>2011-05-27T16:47:38Z</time></trkpt><trkpt lat="39.238350" lon="-7.234150"><ele>387.6</ele><time>2011-05-27T16:47:33Z</time></trkpt><trkpt lat="39.238610" lon="-7.233690"><ele>389.0</ele><time>2011-05-27T16:47:22Z</time></trkpt><trkpt lat="39.238820" lon="-7.233180"><ele>392.4</ele><time>2011-05-27T16:47:07Z</time></trkpt><trkpt lat="39.238870" lon="-7.233050"><ele>391.9</ele><time>2011-05-27T16:46:52Z</time></trkpt><trkpt lat="39.238910" lon="-7.233020"><ele>391.4</ele><time>2011-05-27T16:46:40Z</time></trkpt><trkpt lat="39.239080" lon="-7.233060"><ele>390.9</ele><time>2011-05-27T16:46:13Z</time></trkpt><trkpt lat="39.239060" lon="-7.233050"><ele>390.4</ele><time>2011-05-27T16:45:50Z</time></trkpt><trkpt lat="39.239400" lon="-7.233250"><ele>390.0</ele><time>2011-05-27T16:45:39Z</time></trkpt><trkpt lat="39.239400" lon="-7.233250"><ele>390.0</ele><time>2011-05-27T16:45:19Z</time></trkpt><trkpt lat="39.239640" lon="-7.233410"><ele>390.9</ele><time>2011-05-27T16:45:08Z</time></trkpt><trkpt lat="39.239670" lon="-7.233400"><ele>390.4</ele><time>2011-05-27T16:45:07Z</time></trkpt><trkpt lat="39.239840" lon="-7.233250"><ele>390.0</ele><time>2011-05-27T16:44:45Z</time></trkpt><trkpt lat="39.239870" lon="-7.233060"><ele>390.4</ele><time>2011-05-27T16:44:37Z</time></trkpt><trkpt lat="39.240010" lon="-7.232620"><ele>388.5</ele><time>2011-05-27T16:44:25Z</time></trkpt><trkpt lat="39.240060" lon="-7.232540"><ele>388.5</ele><time>2011-05-27T16:44:22Z</time></trkpt><trkpt lat="39.240050" lon="-7.232540"><ele>387.6</ele><time>2011-05-27T16:43:51Z</time></trkpt><trkpt lat="39.240080" lon="-7.232540"><ele>385.6</ele><time>2011-05-27T16:43:39Z</time></trkpt><trkpt lat="39.240600" lon="-7.232360"><ele>382.2</ele><time>2011-05-27T16:43:24Z</time></trkpt><trkpt lat="39.240920" lon="-7.232280"><ele>378.9</ele><time>2011-05-27T16:43:12Z</time></trkpt><trkpt lat="39.241180" lon="-7.231780"><ele>381.3</ele><time>2011-05-27T16:42:59Z</time></trkpt><trkpt lat="39.241580" lon="-7.231350"><ele>381.8</ele><time>2011-05-27T16:42:44Z</time></trkpt><trkpt lat="39.241790" lon="-7.231160"><ele>383.2</ele><time>2011-05-27T16:41:29Z</time></trkpt><trkpt lat="39.241810" lon="-7.231120"><ele>383.2</ele><time>2011-05-27T16:40:27Z</time></trkpt><trkpt lat="39.241890" lon="-7.231080"><ele>384.2</ele><time>2011-05-27T16:40:15Z</time></trkpt></trkseg></trk></gpx>